utilisation pie
utilisation bar
humidity graph
temperature graph
Station id: f3370e for 2 days

start:   stop:  

day time in temp out temp in RH out RH H quota rule action
2020-08-14 00:08:21 25.2 18.6 55 75 94 h 0
2020-08-14 00:38:33 25.0 18.0 55 78 95 h 0
2020-08-14 01:08:50 24.8 17.4 56 79 93 h 0
2020-08-14 01:39:02 24.5 16.6 56 81 92 h 0
2020-08-14 02:09:14 24.3 16.2 56 82 92 h 0
2020-08-14 02:39:26 24.0 16.1 55 81 92 h 0
2020-08-14 03:09:44 23.7 15.8 56 81 92 h 0
2020-08-14 03:40:15 23.5 15.7 56 82 93 h 0
2020-08-14 04:10:27 23.2 15.5 56 83 94 h 0
2020-08-14 04:40:44 23.0 15.1 56 85 95 h 0
2020-08-14 05:11:01 22.8 15.1 57 86 95 h 0
2020-08-14 05:41:12 22.6 14.9 57 86 96 h 0
2020-08-14 06:11:24 22.4 14.7 57 86 96 h 0
2020-08-14 06:41:35 22.2 14.9 57 87 99 h 0
2020-08-14 07:11:52 22.0 15.5 58 86 102 h 0
2020-08-14 07:42:09 21.9 16.6 58 86 109 h 0
2020-08-14 08:12:25 21.8 18.2 58 82 114 h 0
2020-08-14 08:42:43 21.8 19.2 58 78 115 h 0
2020-08-14 09:13:00 21.9 20.4 58 72 114 h 0
2020-08-14 09:43:17 22.0 21.4 58 71 118 h 0
2020-08-14 10:13:29 22.2 22.1 58 69 119 h 0
2020-08-14 10:43:46 22.4 22.6 58 65 114 h 0
2020-08-14 11:14:04 22.6 22.9 57 64 114 h 0
2020-08-14 11:44:21 22.8 23.7 56 64 120 h 0
2020-08-14 12:14:38 23.2 24.2 55 61 117 h 0
2020-08-14 12:44:56 23.8 25.1 54 59 118 h 0
2020-08-14 13:15:08 24.3 25.7 52 58 120 h 0
2020-08-14 13:45:20 24.8 26.1 52 58 121 h 0
2020-08-14 14:15:38 25.2 26.0 52 60 120 h 0
2020-08-14 14:45:55 25.6 26.1 52 60 119 h 0
2020-08-14 15:16:07 25.9 26.3 52 61 120 h 0
2020-08-14 15:46:20 26.0 26.9 52 60 121 h 0
2020-08-14 16:16:32 26.2 26.5 52 58 113 h 0
2020-08-14 16:46:49 26.3 26.2 54 60 111 h 0
2020-08-14 17:17:06 26.4 26.2 53 60 111 h 0
2020-08-14 17:47:23 26.3 25.7 54 60 106 h 0
2020-08-14 18:17:40 26.3 25.5 55 60 105 h 0
2020-08-14 18:47:58 26.1 26.1 54 58 107 h 0
2020-08-14 19:18:15 26.0 24.6 55 60 102 h 0
2020-08-14 19:48:27 25.9 24.0 55 59 96 h 0
2020-08-14 20:18:39 25.7 23.3 56 61 96 h 0
2020-08-14 20:48:56 25.5 22.5 55 62 95 h 0
2020-08-14 21:19:13 25.3 21.7 54 65 97 h 0
2020-08-14 21:49:31 25.3 21.1 54 67 97 h 0
2020-08-14 22:19:48 25.2 20.5 55 68 95 h 0
2020-08-14 22:50:05 25.1 19.8 55 70 94 h 0
2020-08-14 23:20:22 24.9 19.1 55 72 94 h 0
2020-08-14 23:50:39 24.8 18.6 54 73 94 h 0
2020-08-15 00:20:51 24.6 18.2 55 73 92 h 0
2020-08-15 00:51:09 24.5 18.1 55 74 94 h 0
2020-08-15 01:21:26 24.3 17.9 55 73 92 h 0
2020-08-15 01:51:43 24.1 17.5 55 74 92 h 0
2020-08-15 02:22:00 23.9 17.1 54 75 93 h 0
2020-08-15 02:52:17 23.7 16.7 54 77 95 h 0
2020-08-15 03:22:34 23.5 16.3 54 78 95 h 0
2020-08-15 03:52:47 23.3 15.8 54 80 95 h 0
2020-08-15 04:23:00 23.0 15.5 54 81 96 h 0
2020-08-15 04:53:12 22.8 15.3 55 83 98 h 0
2020-08-15 05:23:29 22.6 15.2 55 83 98 h 0
2020-08-15 05:53:51 22.4 15.1 55 84 99 h 0
2020-08-15 06:24:09 22.2 14.8 56 86 99 h 0
2020-08-15 06:54:26 22.1 15.2 56 87 103 h 0


2020-08-15 07:21:28 CEST